createdAt,value
2022-10-26T03:13:34.994Z,16.56
2022-10-26T03:16:01.419Z,16.58
2022-10-26T03:18:27.829Z,16.61
2022-10-26T03:20:54.234Z,16.62
2022-10-26T03:23:20.726Z,16.64
2022-10-26T03:25:47.150Z,16.65
2022-10-26T03:28:14.257Z,16.66
2022-10-26T03:30:40.742Z,16.65
2022-10-26T03:33:07.178Z,16.64
2022-10-26T03:35:33.538Z,16.62
2022-10-26T03:38:00.010Z,16.63
2022-10-26T03:40:26.471Z,16.61
2022-10-26T03:42:53.207Z,16.61
2022-10-26T03:45:19.699Z,16.59
2022-10-26T03:47:47.275Z,16.59
2022-10-26T03:50:14.707Z,16.60
2022-10-26T03:52:41.207Z,16.60
2022-10-26T03:55:08.298Z,16.61
2022-10-26T03:57:34.707Z,16.62
2022-10-26T04:00:01.338Z,16.60
2022-10-26T04:02:27.663Z,16.61
2022-10-26T04:04:54.011Z,16.60
2022-10-26T04:07:20.375Z,16.62
2022-10-26T04:09:46.725Z,16.61
2022-10-26T04:12:13.060Z,16.63
2022-10-26T04:14:39.379Z,16.63
2022-10-26T04:17:05.752Z,16.62
2022-10-26T04:19:32.084Z,16.64
2022-10-26T04:21:58.443Z,16.68
2022-10-26T04:24:24.774Z,16.74
2022-10-26T04:26:51.158Z,16.81
2022-10-26T04:29:17.499Z,16.89
2022-10-26T04:34:30.157Z,17.10
2022-10-26T04:36:56.484Z,17.20
2022-10-26T04:39:22.817Z,17.30
2022-10-26T04:41:49.194Z,17.41
2022-10-26T04:44:15.719Z,17.51
2022-10-26T04:46:42.061Z,17.61
2022-10-26T04:49:08.452Z,17.70
2022-10-26T04:51:34.836Z,17.79
2022-10-26T04:54:01.739Z,17.87
2022-10-26T04:56:28.108Z,17.88
2022-10-26T04:58:54.505Z,17.89
2022-10-26T05:01:21.315Z,17.85
2022-10-26T05:03:54.777Z,17.80
2022-10-26T05:06:21.777Z,17.71
2022-10-26T05:08:48.428Z,17.60
2022-10-26T05:11:14.936Z,17.48
2022-10-26T05:13:41.404Z,17.38
2022-10-26T05:16:07.882Z,17.23
2022-10-26T05:18:34.273Z,17.09
2022-10-26T05:21:00.643Z,16.96
2022-10-26T05:23:26.997Z,16.84
2022-10-26T05:25:55.209Z,16.72
2022-10-26T05:28:21.645Z,16.60
2022-10-26T05:30:48.058Z,16.48
2022-10-26T05:33:14.860Z,16.37
2022-10-26T05:35:41.228Z,16.28
2022-10-26T05:38:14.890Z,16.19
2022-10-26T05:40:48.474Z,16.11
2022-10-26T05:43:14.909Z,16.02
2022-10-26T05:45:41.241Z,15.95
2022-10-26T05:48:07.582Z,15.88
2022-10-26T05:50:33.976Z,15.82
2022-10-26T05:53:00.352Z,15.75
2022-10-26T05:55:26.882Z,15.72
2022-10-26T05:57:53.438Z,15.68
2022-10-26T06:00:21.288Z,15.63
2022-10-26T06:03:06.564Z,15.60
2022-10-26T06:05:39.149Z,15.54
2022-10-26T06:08:10.214Z,15.51
2022-10-26T06:10:37.036Z,15.45
2022-10-26T06:13:03.517Z,15.41
2022-10-26T06:15:32.413Z,15.38
2022-10-26T06:18:04.497Z,15.33
2022-10-26T06:20:45.788Z,15.29
2022-10-26T06:23:15.149Z,15.24
2022-10-26T06:26:00.157Z,15.19
2022-10-26T06:28:29.658Z,15.13
2022-10-26T06:30:57.182Z,15.09
2022-10-26T06:33:29.363Z,15.05
2022-10-26T06:36:02.594Z,15.02
2022-10-26T06:38:29.287Z,15.00
2022-10-26T06:40:56.537Z,14.99
2022-10-26T06:43:25.005Z,14.97
2022-10-26T06:45:56.696Z,14.96
2022-10-26T06:48:25.263Z,14.95
2022-10-26T06:50:52.597Z,14.95
2022-10-26T06:53:27.233Z,14.94
2022-10-26T06:55:53.939Z,14.96
2022-10-26T06:58:21.747Z,14.95
2022-10-26T07:00:49.752Z,14.97
2022-10-26T07:03:16.427Z,15.00
2022-10-26T07:05:43.504Z,15.00
2022-10-26T07:08:09.893Z,15.01
2022-10-26T07:10:38.917Z,15.05
2022-10-26T07:13:06.448Z,15.08
2022-10-26T07:15:33.447Z,15.10
2022-10-26T07:18:00.199Z,15.13
2022-10-26T07:20:26.895Z,15.16
2022-10-26T07:22:56.700Z,15.20
2022-10-26T07:25:23.915Z,15.23
2022-10-26T07:27:50.573Z,15.25
2022-10-26T07:30:17.310Z,15.30
2022-10-26T07:32:43.703Z,15.34
2022-10-26T07:35:10.410Z,15.40
2022-10-26T07:37:37.600Z,15.46
2022-10-26T07:40:06.609Z,15.52
2022-10-26T07:42:33.394Z,15.56
2022-10-26T07:44:59.731Z,15.61
2022-10-26T07:47:26.060Z,15.67
2022-10-26T07:49:52.411Z,15.71
2022-10-26T07:52:18.743Z,15.76
2022-10-26T07:54:45.111Z,15.81
2022-10-26T07:57:11.457Z,15.86
2022-10-26T07:59:37.985Z,15.89
2022-10-26T08:02:04.385Z,15.93
2022-10-26T08:04:30.743Z,15.98
2022-10-26T08:06:57.072Z,16.01
2022-10-26T08:09:23.444Z,16.03
2022-10-26T08:11:49.795Z,16.09
2022-10-26T08:14:16.128Z,16.13
2022-10-26T08:16:42.563Z,16.15
2022-10-26T08:19:08.951Z,16.18
2022-10-26T08:21:40.239Z,16.22
2022-10-26T08:24:07.321Z,16.25
2022-10-26T08:26:33.679Z,16.28
2022-10-26T08:29:00.092Z,16.31
2022-10-26T08:31:26.490Z,16.36
2022-10-26T08:33:52.851Z,16.37
2022-10-26T08:36:22.987Z,16.42
2022-10-26T08:38:49.442Z,16.47
2022-10-26T08:41:15.913Z,16.51
2022-10-26T08:43:54.008Z,16.52
2022-10-26T08:46:23.679Z,16.57
2022-10-26T08:48:52.749Z,16.61
2022-10-26T08:51:22.260Z,16.65
2022-10-26T08:53:52.165Z,16.67
2022-10-26T08:56:23.797Z,16.71
2022-10-26T08:58:55.984Z,16.76
2022-10-26T09:01:22.577Z,16.77
2022-10-26T09:03:49.361Z,16.86
2022-10-26T09:06:20.700Z,16.90
2022-10-26T09:08:49.808Z,16.96
2022-10-26T09:11:36.336Z,17.03
2022-10-26T09:14:25.769Z,17.10
2022-10-26T09:17:11.980Z,17.19
2022-10-26T09:19:44.557Z,17.27
2022-10-26T09:22:14.138Z,17.38
2022-10-26T09:24:48.146Z,17.46
2022-10-26T09:27:14.582Z,17.57
2022-10-26T09:29:41.856Z,17.68
2022-10-26T09:32:17.537Z,17.78
2022-10-26T09:34:52.445Z,17.90
2022-10-26T09:37:21.188Z,18.00
2022-10-26T09:40:04.821Z,18.12
2022-10-26T09:42:38.857Z,18.25
2022-10-26T09:45:11.902Z,18.37
2022-10-26T09:47:39.779Z,18.49
2022-10-26T09:50:09.362Z,18.61
2022-10-26T09:52:35.773Z,18.72
2022-10-26T09:55:02.162Z,18.80
2022-10-26T09:57:29.442Z,18.92
2022-10-26T09:59:56.294Z,19.04
2022-10-26T10:02:40.168Z,19.14
2022-10-26T10:05:45.750Z,19.25
2022-10-26T10:08:14.433Z,19.34
2022-10-26T10:10:53.670Z,19.41
2022-10-26T15:12:49.112Z,25.00
2022-10-26T15:15:15.599Z,24.91
2022-10-26T15:17:49.768Z,24.81
2022-10-26T15:20:18.623Z,24.70
2022-10-26T15:22:50.704Z,24.57
2022-10-26T15:25:20.679Z,24.46
2022-10-26T15:27:47.905Z,24.33
2022-10-26T15:30:25.118Z,24.19
2022-10-26T15:32:52.724Z,24.10
2022-10-26T15:35:19.439Z,23.97
2022-10-26T15:37:47.410Z,23.85
2022-10-26T15:40:14.356Z,23.74
2022-10-26T15:42:41.999Z,23.62
2022-10-26T15:45:14.248Z,23.52
2022-10-26T15:47:40.673Z,23.40
2022-10-26T15:50:11.846Z,23.29
2022-10-26T15:52:38.497Z,23.21
2022-10-26T15:55:05.041Z,23.09
2022-10-26T15:57:31.397Z,23.01
2022-10-26T15:59:57.796Z,22.90
2022-10-26T16:02:24.213Z,22.80
2022-10-26T16:04:50.628Z,22.69
2022-10-26T16:07:17.780Z,22.60
2022-10-26T16:09:44.661Z,22.51
2022-10-26T16:12:11.749Z,22.41
2022-10-26T16:14:53.372Z,22.33
2022-10-26T16:17:25.153Z,22.25
2022-10-26T16:19:51.613Z,22.19
2022-10-26T16:22:18.001Z,22.14
2022-10-26T16:24:44.423Z,22.07
2022-10-26T16:27:10.820Z,22.01
2022-10-26T16:29:37.218Z,21.97
2022-10-26T16:32:03.618Z,21.94
2022-10-26T16:34:30.090Z,21.89
2022-10-26T16:36:56.524Z,21.85
2022-10-26T16:39:22.946Z,21.83
2022-10-26T16:41:50.186Z,21.79
2022-10-26T16:44:16.563Z,21.75
2022-10-26T16:46:43.027Z,21.72
2022-10-26T16:49:09.441Z,21.68
2022-10-26T16:51:35.886Z,21.66
2022-10-26T16:54:02.509Z,21.62
2022-10-26T16:56:30.104Z,21.58
2022-10-26T16:58:57.273Z,21.54
2022-10-26T17:01:23.932Z,21.50
2022-10-26T17:03:51.281Z,21.45
2022-10-26T17:06:18.381Z,21.44
2022-10-26T17:08:44.879Z,21.39
2022-10-26T17:11:12.676Z,21.37
2022-10-26T17:13:39.778Z,21.33
2022-10-26T17:16:17.136Z,21.29
2022-10-26T17:18:44.240Z,21.25
2022-10-26T17:21:11.756Z,21.22
2022-10-26T17:23:38.618Z,21.22
2022-10-26T17:26:06.482Z,21.19
2022-10-26T17:28:33.060Z,21.15
2022-10-26T17:31:17.433Z,21.12
2022-10-26T17:33:44.553Z,21.10
2022-10-26T17:36:12.983Z,21.07
2022-10-26T17:38:40.722Z,21.05
2022-10-26T17:41:11.165Z,21.02
2022-10-26T17:43:38.373Z,21.01
2022-10-26T17:46:06.077Z,20.98
2022-10-26T17:48:32.536Z,20.94
2022-10-26T17:50:59.898Z,20.92
2022-10-26T17:53:26.477Z,20.88
2022-10-26T17:56:02.777Z,20.86
2022-10-26T17:58:29.310Z,20.80
2022-10-26T18:00:55.896Z,20.77
2022-10-26T18:03:22.262Z,20.73
2022-10-26T18:05:49.489Z,20.71
2022-10-26T18:08:15.879Z,20.66
2022-10-26T18:10:48.841Z,20.63
2022-10-26T18:13:15.234Z,20.60
2022-10-26T18:15:41.658Z,20.57
2022-10-26T18:18:08.914Z,20.54
2022-10-26T18:20:35.942Z,20.51
2022-10-26T18:23:02.489Z,20.49
2022-10-26T18:25:29.060Z,20.45
2022-10-26T18:27:55.464Z,20.42
2022-10-26T18:30:22.470Z,20.38
2022-10-26T18:32:50.059Z,20.36
2022-10-26T18:35:16.847Z,20.33
2022-10-26T18:37:43.324Z,20.30
2022-10-26T18:40:10.434Z,20.28
2022-10-26T18:42:37.046Z,20.24
2022-10-26T18:45:04.898Z,20.21
2022-10-26T18:47:31.847Z,20.17
2022-10-26T18:49:58.689Z,20.14
2022-10-26T18:52:27.270Z,20.14
2022-10-26T18:54:54.338Z,20.09
2022-10-26T18:57:24.748Z,20.09
2022-10-26T18:59:54.803Z,20.09
2022-10-26T19:02:22.965Z,20.10
2022-10-26T19:04:51.007Z,20.11
2022-10-26T19:07:17.534Z,20.09
2022-10-26T19:09:43.965Z,20.11
2022-10-26T19:12:10.565Z,20.11
2022-10-26T19:14:37.012Z,20.12
2022-10-26T19:17:03.807Z,20.11
2022-10-26T19:19:30.239Z,20.13
2022-10-26T19:21:56.783Z,20.13
2022-10-26T19:24:23.519Z,20.13
2022-10-26T19:26:50.968Z,20.14
2022-10-26T19:29:17.988Z,20.14
2022-10-26T19:31:45.176Z,20.13
2022-10-26T19:34:12.299Z,20.12
2022-10-26T19:36:39.730Z,20.11
2022-10-26T19:39:06.897Z,20.10
2022-10-26T19:41:33.331Z,20.10
2022-10-26T19:46:46.249Z,20.07
2022-10-26T19:49:13.068Z,20.06
2022-10-26T19:51:39.695Z,20.05
2022-10-26T19:54:07.250Z,20.03
2022-10-26T19:56:34.361Z,20.01
2022-10-26T19:59:01.936Z,20.00
2022-10-26T20:01:28.436Z,19.96
2022-10-26T20:03:55.181Z,19.96
2022-10-26T20:06:21.777Z,19.93
2022-10-26T20:08:48.902Z,19.92
2022-10-26T20:11:16.804Z,19.92
2022-10-26T20:13:44.337Z,19.91
2022-10-26T20:16:12.022Z,19.88
2022-10-26T20:18:41.198Z,19.88
2022-10-26T20:21:11.592Z,19.86
2022-10-26T20:23:37.991Z,19.85
2022-10-26T20:26:07.482Z,19.84
2022-10-26T20:28:33.941Z,19.84
2022-10-26T20:31:00.425Z,19.84
2022-10-26T20:33:27.201Z,19.82
2022-10-26T20:35:57.681Z,19.82
2022-10-26T20:38:24.309Z,19.81
2022-10-26T20:40:54.100Z,19.82
2022-10-26T20:43:20.857Z,19.82
2022-10-26T20:45:47.460Z,19.82
2022-10-26T20:48:14.422Z,19.83
2022-10-26T20:50:41.588Z,19.83
2022-10-26T20:53:12.613Z,19.83
2022-10-26T20:55:39.181Z,19.84
2022-10-26T20:58:09.841Z,19.82
2022-10-26T21:00:42.613Z,19.84
2022-10-26T21:03:09.377Z,19.83
2022-10-26T21:05:35.877Z,19.82
2022-10-26T21:08:02.343Z,19.83
2022-10-26T21:10:28.987Z,19.82
2022-10-26T21:12:55.432Z,19.83
2022-10-26T21:15:21.877Z,19.82
2022-10-26T21:17:48.450Z,19.82
2022-10-26T21:20:15.093Z,19.81
2022-10-26T21:22:41.527Z,19.82
2022-10-26T21:25:08.115Z,19.82
2022-10-26T21:27:34.558Z,19.82
2022-10-26T21:30:01.098Z,19.84
2022-10-26T21:32:27.571Z,19.85
2022-10-26T21:34:53.998Z,19.86
2022-10-26T21:37:20.390Z,19.86
2022-10-26T21:39:46.795Z,19.88
2022-10-26T21:42:13.208Z,19.88
2022-10-26T21:44:41.464Z,19.88
2022-10-26T21:47:08.577Z,19.88
2022-10-26T21:49:35.061Z,19.87
2022-10-26T21:52:01.574Z,19.84
2022-10-26T21:54:28.011Z,19.83
2022-10-26T21:56:54.414Z,19.80
2022-10-26T21:59:20.812Z,19.77
2022-10-26T22:01:47.452Z,19.74
2022-10-26T22:04:14.146Z,19.72
2022-10-26T22:06:40.645Z,19.69
2022-10-26T22:09:07.162Z,19.66
2022-10-26T22:11:34.047Z,19.63
2022-10-26T22:14:00.514Z,19.60
2022-10-26T22:16:28.484Z,19.57
2022-10-26T22:18:56.271Z,19.55
2022-10-26T22:21:24.875Z,19.56
2022-10-26T22:23:51.447Z,19.54
2022-10-26T22:26:27.155Z,19.52
2022-10-26T22:28:54.767Z,19.51
2022-10-26T22:31:22.853Z,19.50
2022-10-26T22:34:03.375Z,19.50
2022-10-26T22:36:33.053Z,19.49
2022-10-26T22:38:59.535Z,19.49
2022-10-26T22:41:26.078Z,19.50
2022-10-26T22:43:52.563Z,19.51
2022-10-26T22:46:23.190Z,19.52
2022-10-26T22:48:53.618Z,19.52
2022-10-26T22:51:21.171Z,19.53
2022-10-26T22:53:51.244Z,19.53
2022-10-26T22:56:17.757Z,19.53
2022-10-26T22:58:44.247Z,19.52
2022-10-26T23:01:15.957Z,19.51
2022-10-26T23:03:42.760Z,19.50
2022-10-26T23:06:12.452Z,19.49
2022-10-26T23:08:38.896Z,19.47
2022-10-26T23:11:06.988Z,19.43
2022-10-26T23:13:33.669Z,19.39
2022-10-26T23:16:07.196Z,19.36
2022-10-26T23:18:34.220Z,19.32
2022-10-26T23:21:00.912Z,19.27
2022-10-26T23:23:27.656Z,19.21
2022-10-26T23:25:54.188Z,19.16
2022-10-26T23:28:20.652Z,19.09
2022-10-26T23:30:47.200Z,19.02
2022-10-26T23:33:14.022Z,18.96
2022-10-26T23:35:40.826Z,18.89
2022-10-26T23:40:34.652Z,18.79
2022-10-26T23:43:01.176Z,18.76
2022-10-26T23:45:27.601Z,18.73
2022-10-26T23:47:54.173Z,18.73
2022-10-26T23:50:20.621Z,18.74
2022-10-26T23:52:50.164Z,18.74
2022-10-26T23:55:16.701Z,18.74
2022-10-26T23:57:43.158Z,18.75
